Time;durP1;ratioP1;P1;durP2;ratioP2;P2;SDS_P1;SDS_P2;PMS_P1;PMS_P2;Temp;Humidity;BMP_temperature;BMP_pressure;BME280_temperature;BME280_humidity;BME280_pressure;Samples;Min_cycle;Max_cycle;Signal;HPM_P1;HPM_P2
2023/02/17 00:02:21;;;;;;;;;;;;;;;16.24;39.68;101648.78;5075886;28;1070;-54
2023/02/17 00:04:47;;;;;;;;;;;;;;;15.72;41.19;101644.31;5075837;28;1043;-48
2023/02/17 00:07:12;;;;;;;;;;;;;;;15.45;41.89;101644.91;5075837;28;1109;-56
2023/02/17 00:09:38;;;;;;;;;;;;;;;16.62;39.28;101638.94;5075371;28;1970;-58
2023/02/17 00:12:03;;;;;;;;;;;;;;;17.10;37.89;101644.81;5075335;28;1008;-57
2023/02/17 00:14:29;;;;;;;;;;;;;;;16.14;40.25;101641.22;5075898;28;1022;-52
2023/02/17 00:16:54;;;;;;;;;;;;;;;15.61;41.37;101631.50;5075653;28;1097;-58
2023/02/17 00:19:22;;;;;;;;;;;;;;;15.40;41.79;101642.91;5075944;28;1102;-53
2023/02/17 00:21:48;;;;;;;;;;;;;;;16.21;40.00;101632.81;5075404;28;1137;-59
2023/02/17 00:24:14;;;;;;;;;;;;;;;17.33;37.54;101635.44;5075369;28;860;-57
2023/02/17 00:26:39;;;;;;;;;;;;;;;16.18;39.87;101623.16;5075463;28;1007;-54
2023/02/17 00:29:04;;;;;;;;;;;;;;;15.68;41.17;101622.03;5076100;28;1893;-52
2023/02/17 00:31:30;;;;;;;;;;;;;;;15.39;41.62;101613.84;5074460;28;1105;-57
2023/02/17 00:33:57;;;;;;;;;;;;;;;16.27;40.10;101617.25;5075921;28;1067;-59
2023/02/17 00:36:25;;;;;;;;;;;;;;;17.21;37.94;101610.88;5085930;28;1597;-49
2023/02/17 00:38:50;;;;;;;;;;;;;;;16.10;40.27;101606.31;5077727;28;1422;-55
2023/02/17 00:41:16;;;;;;;;;;;;;;;15.67;41.27;101601.19;5077880;28;1193;-56
2023/02/17 00:43:41;;;;;;;;;;;;;;;15.39;41.84;101613.00;5079137;28;1059;-45
2023/02/17 00:46:07;;;;;;;;;;;;;;;16.89;38.76;101597.03;5078881;28;1059;-57
2023/02/17 00:48:32;;;;;;;;;;;;;;;16.33;39.65;101603.38;5082867;28;1905;-49
2023/02/17 00:50:58;;;;;;;;;;;;;;;15.78;40.96;101601.34;5094428;28;1003;-44
2023/02/17 00:53:25;;;;;;;;;;;;;;;15.40;41.79;101593.59;5079308;28;1059;-46
2023/02/17 00:55:50;;;;;;;;;;;;;;;15.55;41.36;101583.97;5077948;28;1123;-47
2023/02/17 00:58:16;;;;;;;;;;;;;;;17.12;38.15;101576.69;5077740;28;1159;-55
2023/02/17 01:00:41;;;;;;;;;;;;;;;16.71;38.72;101576.16;5078466;28;1101;-55
2023/02/17 01:03:07;;;;;;;;;;;;;;;15.96;40.28;101579.19;5079211;28;1115;-55
2023/02/17 01:05:32;;;;;;;;;;;;;;;15.60;41.21;101578.59;5078886;28;1075;-49
2023/02/17 01:07:57;;;;;;;;;;;;;;;15.34;41.96;101572.63;5078944;28;1959;-48
2023/02/17 01:10:23;;;;;;;;;;;;;;;16.43;39.65;101576.06;5078517;28;1046;-51
2023/02/17 01:12:48;;;;;;;;;;;;;;;17.12;37.80;101559.38;5077850;28;1516;-56
2023/02/17 01:15:14;;;;;;;;;;;;;;;16.07;40.19;101567.31;5078653;28;1098;-57
2023/02/17 01:17:41;;;;;;;;;;;;;;;15.66;40.87;101561.13;5077314;28;1114;-57
2023/02/17 01:20:06;;;;;;;;;;;;;;;15.40;41.58;101560.69;5078462;28;1051;-56
2023/02/17 01:22:32;;;;;;;;;;;;;;;16.76;38.85;101555.09;5078334;28;1055;-58
2023/02/17 01:24:57;;;;;;;;;;;;;;;16.99;38.26;101550.44;5078717;28;1141;-58
2023/02/17 01:27:26;;;;;;;;;;;;;;;16.07;40.02;101553.59;5078779;28;978;-57
2023/02/17 01:29:53;;;;;;;;;;;;;;;15.66;41.15;101544.69;5077244;28;1973;-57
2023/02/17 01:32:18;;;;;;;;;;;;;;;15.55;41.43;101548.31;5078354;28;1150;-57
2023/02/17 01:34:47;;;;;;;;;;;;;;;17.21;37.98;101538.59;5078204;28;1161;-58
2023/02/17 01:37:14;;;;;;;;;;;;;;;16.41;39.40;101541.72;5078591;28;1150;-57
2023/02/17 01:39:39;;;;;;;;;;;;;;;15.79;40.58;101539.94;5077213;28;1039;-57
2023/02/17 01:42:04;;;;;;;;;;;;;;;15.50;41.22;101537.25;5076571;28;1281;-58
2023/02/17 01:44:30;;;;;;;;;;;;;;;15.32;41.91;101541.91;5062547;28;1554;-57
2023/02/17 01:46:56;;;;;;;;;;;;;;;16.95;38.29;101535.56;5077228;28;1406;-57
2023/02/17 01:49:37;;;;;;;;;;;;;;;16.60;39.02;101539.50;5077471;28;1909;-56
2023/02/17 01:52:12;;;;;;;;;;;;;;;15.85;40.48;101544.44;5078311;28;1147;-54
2023/02/17 01:54:44;;;;;;;;;;;;;;;15.50;41.24;101537.25;5077864;28;1078;-52
2023/02/17 01:57:09;;;;;;;;;;;;;;;15.77;40.89;101542.09;5077801;28;1035;-55
2023/02/17 01:59:35;;;;;;;;;;;;;;;17.27;37.63;101526.53;5059881;28;1222;-52
2023/02/17 02:02:01;;;;;;;;;;;;;;;16.26;39.53;101528.63;5078177;28;1206;-55
2023/02/17 02:04:28;;;;;;;;;;;;;;;15.72;40.81;101532.72;5077590;28;1157;-52
2023/02/17 02:06:53;;;;;;;;;;;;;;;15.45;41.29;101534.47;5076440;28;1592;-54
2023/02/17 02:09:20;;;;;;;;;;;;;;;15.98;40.31;101535.09;5049776;28;1910;-51
2023/02/17 02:11:47;;;;;;;;;;;;;;;17.34;37.50;101527.16;5059730;28;1171;-55
2023/02/17 02:14:14;;;;;;;;;;;;;;;16.20;39.64;101516.75;5093108;28;1561;-53
2023/02/17 02:16:52;;;;;;;;;;;;;;;15.71;40.95;101522.84;5059726;28;1118;-53
2023/02/17 02:19:33;;;;;;;;;;;;;;;15.46;41.55;101511.44;5059769;28;1527;-55
2023/02/17 02:22:03;;;;;;;;;;;;;;;15.77;40.88;101512.78;5077352;28;1188;-54
2023/02/17 02:24:35;;;;;;;;;;;;;;;17.27;37.62;101513.63;5092747;28;1174;-55
2023/02/17 02:27:12;;;;;;;;;;;;;;;16.29;39.44;101510.81;5077145;28;1166;-54
2023/02/17 02:29:55;;;;;;;;;;;;;;;15.69;40.78;101507.72;5059211;28;1906;-53
2023/02/17 02:32:27;;;;;;;;;;;;;;;15.38;41.39;101499.81;5059815;28;1173;-55
2023/02/17 02:34:58;;;;;;;;;;;;;;;16.98;38.32;101499.31;5076850;28;1465;-53
2023/02/17 02:37:25;;;;;;;;;;;;;;;16.63;38.78;101506.03;5059555;28;1102;-55
2023/02/17 02:39:51;;;;;;;;;;;;;;;15.87;40.47;101504.72;5042672;28;1393;-53
2023/02/17 02:42:18;;;;;;;;;;;;;;;15.58;40.92;101509.44;5075782;28;1384;-55
2023/02/17 02:44:43;;;;;;;;;;;;;;;16.29;39.62;101499.84;5059260;28;1336;-53
2023/02/17 02:47:28;;;;;;;;;;;;;;;17.02;38.08;101507.88;5075767;28;1115;-54
2023/02/17 02:49:53;;;;;;;;;;;;;;;15.91;40.16;101503.16;5092618;28;1910;-54
2023/02/17 02:52:22;;;;;;;;;;;;;;;15.55;41.30;101509.94;5077054;28;1082;-54
2023/02/17 02:55:03;;;;;;;;;;;;;;;15.32;41.75;101508.19;5057601;28;1309;-55
2023/02/17 02:57:38;;;;;;;;;;;;;;;17.03;37.98;101515.03;5075465;28;1207;-54
2023/02/17 03:00:05;;;;;;;;;;;;;;;16.45;38.99;101517.34;5076182;28;1062;-55
2023/02/17 03:02:44;;;;;;;;;;;;;;;15.77;40.78;101528.38;5088318;28;1117;-54
2023/02/17 03:05:29;;;;;;;;;;;;;;;15.45;41.53;101509.78;5058763;28;1130;-54
2023/02/17 03:07:58;;;;;;;;;;;;;;;16.20;40.00;101521.38;5064124;28;984;-55
2023/02/17 03:10:23;;;;;;;;;;;;;;;17.02;37.90;101514.19;5075718;28;1207;-55
2023/02/17 03:12:49;;;;;;;;;;;;;;;15.91;40.16;101518.78;5058566;28;1400;-55
2023/02/17 03:15:15;;;;;;;;;;;;;;;15.53;41.21;101523.91;5108975;28;1188;-55
2023/02/17 03:17:40;;;;;;;;;;;;;;;15.37;41.33;101522.78;5058714;28;1104;-54
2023/02/17 03:20:07;;;;;;;;;;;;;;;17.06;38.09;101518.09;5076010;28;1066;-54
2023/02/17 03:22:34;;;;;;;;;;;;;;;16.54;38.76;101524.06;5075308;28;1185;-53
2023/02/17 03:25:00;;;;;;;;;;;;;;;15.78;40.47;101522.69;5074509;28;1149;-55
2023/02/17 03:27:26;;;;;;;;;;;;;;;15.46;41.17;101525.13;5074856;28;1430;-55
2023/02/17 03:29:52;;;;;;;;;;;;;;;15.52;41.20;101519.50;5076037;28;1967;-55
2023/02/17 03:32:18;;;;;;;;;;;;;;;17.17;37.76;101520.97;5075068;28;1134;-53
2023/02/17 03:34:44;;;;;;;;;;;;;;;16.55;38.65;101520.19;5076219;28;1067;-56
2023/02/17 03:37:09;;;;;;;;;;;;;;;15.82;40.47;101528.50;5075534;28;890;-54
2023/02/17 03:39:35;;;;;;;;;;;;;;;15.50;41.18;101516.19;5075897;28;1097;-56
2023/02/17 03:42:01;;;;;;;;;;;;;;;16.53;38.91;101522.38;5076612;28;1141;-56
2023/02/17 03:44:26;;;;;;;;;;;;;;;17.24;37.61;101511.41;5075661;28;1255;-56
2023/02/17 03:46:52;;;;;;;;;;;;;;;16.16;39.68;101518.34;5075631;28;1217;-55
2023/02/17 03:49:17;;;;;;;;;;;;;;;15.68;40.57;101519.75;5075778;28;1969;-56
2023/02/17 03:51:43;;;;;;;;;;;;;;;15.45;41.33;101512.53;5076370;28;999;-55
2023/02/17 03:54:08;;;;;;;;;;;;;;;16.22;39.88;101513.75;5075981;28;1182;-56
2023/02/17 03:56:33;;;;;;;;;;;;;;;17.24;37.52;101514.16;5075742;28;1111;-56
2023/02/17 03:58:59;;;;;;;;;;;;;;;16.12;39.72;101505.34;5076169;28;1154;-56
2023/02/17 04:01:24;;;;;;;;;;;;;;;15.62;40.81;101507.88;5068904;28;1311;-51
2023/02/17 04:03:50;;;;;;;;;;;;;;;15.36;41.37;101507.44;5108022;28;1154;-50
2023/02/17 04:06:15;;;;;;;;;;;;;;;16.13;39.75;101507.88;5075556;28;1074;-48
2023/02/17 04:08:41;;;;;;;;;;;;;;;17.35;37.12;101498.59;5075550;28;1906;-52
2023/02/17 04:11:07;;;;;;;;;;;;;;;16.18;39.36;101496.94;5076732;28;1163;-46
2023/02/17 04:13:32;;;;;;;;;;;;;;;15.65;40.78;101495.56;5079961;28;1142;-54
2023/02/17 04:16:00;;;;;;;;;;;;;;;15.36;41.21;101493.75;5079477;28;1196;-57
2023/02/17 04:18:25;;;;;;;;;;;;;;;16.69;38.58;101502.28;5080218;28;1114;-52
2023/02/17 04:20:51;;;;;;;;;;;;;;;17.23;37.44;101498.75;5080203;28;1050;-54
2023/02/17 04:23:17;;;;;;;;;;;;;;;16.08;39.73;101499.56;5079949;28;1074;-55
2023/02/17 04:25:42;;;;;;;;;;;;;;;15.68;40.61;101490.44;5079310;28;936;-53
2023/02/17 04:28:09;;;;;;;;;;;;;;;15.36;41.36;101491.00;5079166;28;1969;-55
2023/02/17 04:30:34;;;;;;;;;;;;;;;16.75;38.59;101490.25;5079768;28;1110;-56
2023/02/17 04:33:00;;;;;;;;;;;;;;;17.15;37.78;101484.66;5079602;28;1050;-51
2023/02/17 04:35:25;;;;;;;;;;;;;;;16.07;39.54;101486.91;5079589;28;1233;-52
2023/02/17 04:37:51;;;;;;;;;;;;;;;15.62;40.82;101480.47;5079458;28;927;-51
2023/02/17 04:40:16;;;;;;;;;;;;;;;15.39;41.53;101498.72;5079439;28;1206;-57
2023/02/17 04:42:42;;;;;;;;;;;;;;;15.49;41.15;101497.25;5079289;28;1238;-52
2023/02/17 04:45:07;;;;;;;;;;;;;;;16.71;38.68;101500.09;5079183;28;1122;-55
2023/02/17 04:47:33;;;;;;;;;;;;;;;16.89;38.16;101498.13;5078499;28;1321;-54
2023/02/17 04:49:58;;;;;;;;;;;;;;;15.92;39.88;101512.19;5079075;28;1909;-54
2023/02/17 04:52:24;;;;;;;;;;;;;;;15.54;41.14;101506.38;5079375;28;1147;-50
2023/02/17 04:54:49;;;;;;;;;;;;;;;15.38;41.24;101510.75;5079659;28;980;-46
2023/02/17 04:57:15;;;;;;;;;;;;;;;16.98;38.15;101515.78;5079235;28;1062;-50
2023/02/17 04:59:41;;;;;;;;;;;;;;;16.71;38.54;101515.75;5078695;28;1197;-48
2023/02/17 05:02:06;;;;;;;;;;;;;;;15.88;40.13;101516.56;5078093;28;1096;-51
2023/02/17 05:04:31;;;;;;;;;;;;;;;15.52;40.86;101515.94;5079365;28;1002;-51
2023/02/17 05:06:57;;;;;;;;;;;;;;;15.37;41.44;101522.78;5078937;28;1122;-51
2023/02/17 05:09:22;;;;;;;;;;;;;;;17.00;38.06;101519.13;5078416;28;1910;-50
2023/02/17 05:11:48;;;;;;;;;;;;;;;16.69;38.67;101526.16;5078528;28;1098;-47
2023/02/17 05:14:13;;;;;;;;;;;;;;;15.86;40.31;101514.03;5078686;28;893;-51
2023/02/17 05:16:38;;;;;;;;;;;;;;;15.51;40.82;101517.81;5079057;28;1138;-50
2023/02/17 05:19:04;;;;;;;;;;;;;;;15.53;41.08;101520.34;5078548;28;1058;-48
2023/02/17 05:21:29;;;;;;;;;;;;;;;17.16;37.75;101524.78;5078477;28;1385;-44
2023/02/17 05:23:55;;;;;;;;;;;;;;;16.39;38.92;101530.97;5078177;28;1166;-50
2023/02/17 05:26:20;;;;;;;;;;;;;;;15.78;40.26;101527.31;5078130;28;867;-52
2023/02/17 05:28:46;;;;;;;;;;;;;;;15.50;41.20;101531.78;5078277;28;1973;-56
2023/02/17 05:31:11;;;;;;;;;;;;;;;15.78;40.53;101530.91;5078335;28;1113;-48
2023/02/17 05:33:37;;;;;;;;;;;;;;;17.27;37.36;101537.53;5078817;28;1106;-55
2023/02/17 05:36:03;;;;;;;;;;;;;;;16.33;39.08;101534.75;5077665;28;1178;-49
2023/02/17 05:38:28;;;;;;;;;;;;;;;15.71;40.34;101544.78;5080821;28;1185;-50
2023/02/17 05:40:54;;;;;;;;;;;;;;;15.42;41.35;101545.88;5073857;28;987;-53
2023/02/17 05:43:19;;;;;;;;;;;;;;;16.57;38.83;101545.50;5077046;28;1232;-56
2023/02/17 05:45:45;;;;;;;;;;;;;;;17.26;37.52;101549.63;5078198;28;1066;-49
2023/02/17 05:48:10;;;;;;;;;;;;;;;16.13;39.81;101551.78;5077331;28;1964;-54
2023/02/17 05:50:36;;;;;;;;;;;;;;;15.66;40.60;101550.16;5077003;28;844;-56
2023/02/17 05:53:01;;;;;;;;;;;;;;;15.42;41.37;101549.47;5075698;28;1067;-56
2023/02/17 05:55:27;;;;;;;;;;;;;;;16.53;38.97;101549.84;5077257;28;1016;-56
2023/02/17 05:57:52;;;;;;;;;;;;;;;17.02;37.91;101552.66;5063716;28;2615;-56
2023/02/17 06:00:18;;;;;;;;;;;;;;;16.08;39.64;101558.00;5076944;28;1134;-56
2023/02/17 06:02:43;;;;;;;;;;;;;;;15.62;40.87;101550.91;5076337;28;865;-57
2023/02/17 06:05:09;;;;;;;;;;;;;;;15.38;41.41;101551.88;5076652;28;1038;-57
2023/02/17 06:07:34;;;;;;;;;;;;;;;16.37;39.58;101560.63;5076328;28;1042;-57
2023/02/17 06:09:59;;;;;;;;;;;;;;;17.32;37.22;101550.50;5076718;28;1902;-56
2023/02/17 06:12:25;;;;;;;;;;;;;;;16.18;39.59;101553.75;5077054;28;1145;-53
2023/02/17 06:14:50;;;;;;;;;;;;;;;15.71;40.49;101549.41;5075033;28;882;-52
2023/02/17 06:17:16;;;;;;;;;;;;;;;16.91;38.17;101559.13;5076274;28;1130;-53
2023/02/17 06:19:41;;;;;;;;;;;;;;;16.05;39.88;101553.00;5076168;28;1159;-53
2023/02/17 06:22:07;;;;;;;;;;;;;;;16.18;39.75;101562.81;5076805;28;1054;-55
2023/02/17 06:24:32;;;;;;;;;;;;;;;16.89;37.85;101548.41;5076332;28;1078;-53
2023/02/17 06:26:58;;;;;;;;;;;;;;;15.76;40.55;101552.25;5075837;28;2456;-55
2023/02/17 06:29:23;;;;;;;;;;;;;;;16.16;40.00;101555.91;5074866;28;1974;-54
2023/02/17 06:31:49;;;;;;;;;;;;;;;16.14;39.77;101549.84;5076115;28;1105;-56
2023/02/17 06:34:14;;;;;;;;;;;;;;;17.39;37.43;101557.47;5076229;28;1031;-54
2023/02/17 06:36:40;;;;;;;;;;;;;;;18.21;35.48;101550.97;5075271;28;1103;-53
2023/02/17 06:39:05;;;;;;;;;;;;;;;16.56;38.70;101554.81;5075436;28;889;-56
2023/02/17 06:41:31;;;;;;;;;;;;;;;16.02;39.88;101552.66;5075094;28;1011;-53
2023/02/17 06:43:56;;;;;;;;;;;;;;;16.62;38.74;101562.06;5076715;28;1096;-49
2023/02/17 06:46:21;;;;;;;;;;;;;;;15.95;40.07;101557.50;5076674;28;1121;-48
2023/02/17 06:48:47;;;;;;;;;;;;;;;17.61;36.93;101564.78;5075744;28;1906;-54
2023/02/17 06:51:12;;;;;;;;;;;;;;;16.48;38.90;101558.00;5089071;28;1002;-51
2023/02/17 06:53:38;;;;;;;;;;;;;;;16.46;39.24;101560.19;5076016;28;1110;-54
2023/02/17 06:56:03;;;;;;;;;;;;;;;17.24;37.55;101565.56;5076393;28;1189;-52
2023/02/17 06:58:30;;;;;;;;;;;;;;;16.18;39.67;101564.72;5076584;28;1059;-52
2023/02/17 07:00:55;;;;;;;;;;;;;;;18.13;36.04;101561.41;5076331;28;1082;-53
2023/02/17 07:03:21;;;;;;;;;;;;;;;16.98;37.92;101568.00;5076241;28;1073;-57
2023/02/17 07:05:46;;;;;;;;;;;;;;;16.28;39.72;101562.13;5076471;28;1074;-57
2023/02/17 07:08:11;;;;;;;;;;;;;;;17.47;37.07;101564.38;5076012;28;1894;-58
2023/02/17 07:10:37;;;;;;;;;;;;;;;16.38;39.57;101567.78;5076294;28;1126;-57
2023/02/17 07:13:02;;;;;;;;;;;;;;;16.92;38.71;101569.84;5075320;28;1101;-61
2023/02/17 07:15:28;;;;;;;;;;;;;;;16.66;38.98;101565.94;5075930;28;1031;-57
2023/02/17 07:17:53;;;;;;;;;;;;;;;16.10;39.96;101570.63;5075988;28;1050;-53
2023/02/17 07:20:19;;;;;;;;;;;;;;;17.66;36.87;101566.78;5076098;28;1057;-59
2023/02/17 07:22:44;;;;;;;;;;;;;;;16.39;39.31;101569.41;5075650;28;983;-54
2023/02/17 07:25:10;;;;;;;;;;;;;;;16.33;39.86;101577.84;5075850;28;1031;-56
2023/02/17 07:27:35;;;;;;;;;;;;;;;16.70;38.81;101566.25;5076013;28;959;-57
2023/02/17 07:30:01;;;;;;;;;;;;;;;16.22;39.86;101571.38;5075992;28;1972;-57
2023/02/17 07:32:26;;;;;;;;;;;;;;;18.27;36.01;101566.41;5075752;28;1023;-58
2023/02/17 07:34:52;;;;;;;;;;;;;;;16.71;38.84;101568.75;5075813;28;1074;-58
2023/02/17 07:37:20;;;;;;;;;;;;;;;16.17;39.99;101574.03;5075713;28;1107;-57
2023/02/17 07:39:46;;;;;;;;;;;;;;;17.23;37.53;101577.63;5075774;28;1027;-57
2023/02/17 07:42:12;;;;;;;;;;;;;;;16.69;39.23;101575.56;5075275;28;1090;-57
2023/02/17 07:44:37;;;;;;;;;;;;;;;18.56;35.36;101574.31;5086825;28;1062;-49
2023/02/17 07:47:03;;;;;;;;;;;;;;;17.33;37.58;101585.16;5078626;28;971;-49
2023/02/17 07:49:29;;;;;;;;;;;;;;;16.57;39.17;101589.44;5075098;28;1969;-48
2023/02/17 07:51:54;;;;;;;;;;;;;;;16.46;39.58;101593.94;5075903;28;1030;-48
2023/02/17 07:54:19;;;;;;;;;;;;;;;17.06;38.26;101581.28;5075181;28;1172;-49
2023/02/17 07:56:45;;;;;;;;;;;;;;;16.37;39.58;101581.75;5075647;28;1166;-49
2023/02/17 07:59:10;;;;;;;;;;;;;;;17.64;37.39;101580.75;5075618;28;1011;-48
2023/02/17 08:01:36;;;;;;;;;;;;;;;16.67;39.18;101578.56;5075327;28;1023;-47
2023/02/17 08:04:01;;;;;;;;;;;;;;;16.07;40.44;101581.03;5074159;28;1035;-46
2023/02/17 08:06:27;;;;;;;;;;;;;;;17.32;37.57;101573.34;5075705;28;1034;-51
2023/02/17 08:14:21;;;;;;;;;;;;;;;16.61;39.30;101571.38;5062834;28;1107;-57
2023/02/17 08:16:47;;;;;;;;;;;;;;;16.43;39.90;101578.81;5075536;28;1070;-58
2023/02/17 08:19:12;;;;;;;;;;;;;;;17.14;38.01;101576.41;5075036;28;1391;-59
2023/02/17 08:21:38;;;;;;;;;;;;;;;16.41;39.95;101578.25;5075367;28;1046;-58
2023/02/17 08:24:03;;;;;;;;;;;;;;;18.41;35.99;101567.63;5075277;28;1043;-56
2023/02/17 08:26:29;;;;;;;;;;;;;;;17.13;38.19;101583.03;5074743;28;1050;-56
2023/02/17 08:28:54;;;;;;;;;;;;;;;16.58;39.46;101585.63;5075876;28;1987;-56
2023/02/17 08:31:27;;;;;;;;;;;;;;;16.19;40.17;101589.16;5076098;28;1050;-55
2023/02/17 08:33:52;;;;;;;;;;;;;;;17.34;37.91;101571.13;5076234;28;1201;-58
2023/02/17 08:36:20;;;;;;;;;;;;;;;16.67;39.25;101581.31;5074731;28;1114;-54
2023/02/17 08:38:49;;;;;;;;;;;;;;;16.13;40.50;101578.34;5074877;28;1154;-51
2023/02/17 08:41:18;;;;;;;;;;;;;;;17.05;38.43;101578.78;5075260;28;1055;-57
2023/02/17 08:43:44;;;;;;;;;;;;;;;16.61;39.22;101574.13;5062352;28;1216;-55
2023/02/17 08:46:09;;;;;;;;;;;;;;;16.12;40.42;101577.53;5075279;28;1109;-55
2023/02/17 08:48:35;;;;;;;;;;;;;;;17.50;37.56;101560.28;5075520;28;1922;-56
2023/02/17 08:51:01;;;;;;;;;;;;;;;16.39;39.76;101583.13;5075267;28;1146;-54
2023/02/17 08:53:26;;;;;;;;;;;;;;;16.38;40.02;101576.00;5075183;28;1130;-55
2023/02/17 08:55:52;;;;;;;;;;;;;;;16.87;38.43;101577.19;5074957;28;1052;-54
2023/02/17 08:58:17;;;;;;;;;;;;;;;16.42;39.58;101576.31;5075995;28;1146;-57
2023/02/17 09:00:43;;;;;;;;;;;;;;;18.36;35.62;101567.59;5078948;28;1114;-56
2023/02/17 09:03:09;;;;;;;;;;;;;;;16.87;38.55;101574.44;5069227;28;867;-56
2023/02/17 09:05:35;;;;;;;;;;;;;;;16.48;39.50;101572.56;5079034;28;1193;-57
2023/02/17 09:08:00;;;;;;;;;;;;;;;16.11;40.07;101572.31;5078555;28;1110;-55
2023/02/17 09:10:25;;;;;;;;;;;;;;;17.33;37.75;101580.47;5078553;28;1980;-55
2023/02/17 09:12:51;;;;;;;;;;;;;;;16.34;39.77;101574.00;5078858;28;1062;-55
2023/02/17 09:15:16;;;;;;;;;;;;;;;17.49;37.38;101569.63;5078690;28;1190;-52
2023/02/17 09:17:42;;;;;;;;;;;;;;;16.90;38.38;101566.56;5078530;28;1035;-55
2023/02/17 09:20:08;;;;;;;;;;;;;;;16.24;39.87;101566.44;5078488;28;1139;-56
2023/02/17 09:22:33;;;;;;;;;;;;;;;17.19;38.18;101562.75;5082815;28;1253;-56
2023/02/17 09:24:58;;;;;;;;;;;;;;;16.42;39.29;101554.34;5084591;28;1173;-56
2023/02/17 09:27:24;;;;;;;;;;;;;;;17.86;36.57;101555.09;5076346;28;910;-56
2023/02/17 09:29:49;;;;;;;;;;;;;;;18.01;36.02;101558.00;5077617;28;1979;-58
2023/02/17 09:32:15;;;;;;;;;;;;;;;16.77;38.79;101553.16;5085189;28;1244;-54
2023/02/17 09:34:48;;;;;;;;;;;;;;;16.43;39.55;101556.84;5084546;28;1058;-55
2023/02/17 09:37:13;;;;;;;;;;;;;;;17.38;37.57;101563.22;5077179;28;1098;-51
2023/02/17 09:39:39;;;;;;;;;;;;;;;16.71;38.90;101557.75;5077737;28;1454;-53
2023/02/17 09:42:04;;;;;;;;;;;;;;;16.49;39.30;101559.66;5077798;28;1123;-55
2023/02/17 09:44:42;;;;;;;;;;;;;;;17.76;36.46;101555.84;5077186;28;1062;-50
2023/02/17 09:47:24;;;;;;;;;;;;;;;16.46;39.11;101555.50;5077884;28;1162;-54
2023/02/17 09:49:54;;;;;;;;;;;;;;;17.24;38.12;101552.63;5076525;28;1910;-53
2023/02/17 09:52:26;;;;;;;;;;;;;;;16.67;39.06;101551.13;5075652;28;864;-51
2023/02/17 09:54:55;;;;;;;;;;;;;;;16.22;39.94;101549.41;5076414;28;1063;-53
2023/02/17 09:57:21;;;;;;;;;;;;;;;17.74;36.92;101547.88;5110404;28;1122;-52
2023/02/17 10:00:01;;;;;;;;;;;;;;;16.64;39.01;101540.66;5077393;28;1033;-55
2023/02/17 10:02:40;;;;;;;;;;;;;;;17.59;37.40;101543.06;5075699;28;1024;-55
2023/02/17 10:05:06;;;;;;;;;;;;;;;17.33;37.47;101531.00;5077695;28;1186;-54
2023/02/17 10:07:33;;;;;;;;;;;;;;;16.55;39.05;101528.44;5074004;28;1012;-54
2023/02/17 10:10:06;;;;;;;;;;;;;;;18.17;36.28;101527.81;5075943;28;1909;-54
2023/02/17 10:12:37;;;;;;;;;;;;;;;16.71;38.90;101524.81;5075973;28;1067;-54
2023/02/17 10:15:04;;;;;;;;;;;;;;;17.66;37.20;101531.84;5075405;28;1182;-52
2023/02/17 10:17:42;;;;;;;;;;;;;;;17.52;37.08;101536.13;5075730;28;1372;-52
2023/02/17 10:20:11;;;;;;;;;;;;;;;16.68;39.10;101530.00;5075412;28;1074;-52
2023/02/17 10:22:36;;;;;;;;;;;;;;;16.34;39.67;101516.38;5076237;28;1154;-53
2023/02/17 10:25:03;;;;;;;;;;;;;;;17.38;37.28;101513.72;5077310;28;1058;-53
2023/02/17 10:27:29;;;;;;;;;;;;;;;16.47;39.57;101512.44;5075135;28;956;-53
2023/02/17 10:29:57;;;;;;;;;;;;;;;18.20;35.97;101505.28;5076558;28;1979;-53
2023/02/17 10:32:23;;;;;;;;;;;;;;;17.30;37.43;101493.03;5076510;28;1162;-53
2023/02/17 10:34:51;;;;;;;;;;;;;;;16.58;39.13;101504.06;5076823;28;1067;-53
2023/02/17 10:37:20;;;;;;;;;;;;;;;16.35;39.55;101499.63;5076587;28;1194;-55
2023/02/17 10:39:49;;;;;;;;;;;;;;;16.10;40.25;101497.38;5074865;28;1100;-53
2023/02/17 10:42:16;;;;;;;;;;;;;;;17.52;37.19;101484.69;5076119;27;1262;-54
2023/02/17 10:44:42;;;;;;;;;;;;;;;16.56;39.51;101492.53;5076555;28;1034;-52
2023/02/17 10:47:08;;;;;;;;;;;;;;;18.51;35.55;101489.75;5076809;28;1054;-53
2023/02/17 10:49:34;;;;;;;;;;;;;;;17.58;37.14;101491.06;5074957;28;1972;-53
2023/02/17 10:52:20;;;;;;;;;;;;;;;16.73;38.73;101480.59;5076066;28;903;-56
2023/02/17 10:54:53;;;;;;;;;;;;;;;16.51;39.41;101494.34;5075739;28;1185;-54
2023/02/17 10:57:18;;;;;;;;;;;;;;;16.24;39.64;101470.41;5076000;28;1004;-53
2023/02/17 10:59:44;;;;;;;;;;;;;;;16.07;40.15;101470.44;5074834;28;1179;-53
2023/02/17 11:02:24;;;;;;;;;;;;;;;17.11;37.93;101478.84;5076918;28;1178;-53
2023/02/17 11:04:50;;;;;;;;;;;;;;;16.75;38.89;101471.03;5074291;28;991;-54
2023/02/17 11:07:17;;;;;;;;;;;;;;;18.60;35.19;101470.75;5076301;28;1232;-54
2023/02/17 11:09:46;;;;;;;;;;;;;;;17.20;37.69;101470.97;5074328;28;1909;-50
2023/02/17 11:12:13;;;;;;;;;;;;;;;16.58;39.16;101486.78;5075391;28;1075;-47
2023/02/17 11:14:43;;;;;;;;;;;;;;;17.00;38.62;101483.41;5074738;28;1129;-51
2023/02/17 11:17:12;;;;;;;;;;;;;;;16.99;38.20;101469.94;5074420;28;915;-56
2023/02/17 11:19:38;;;;;;;;;;;;;;;16.42;39.50;101461.88;5074342;28;1027;-55
2023/02/17 11:22:04;;;;;;;;;;;;;;;18.10;36.38;101460.09;5074391;28;1123;-52
2023/02/17 11:24:30;;;;;;;;;;;;;;;16.88;38.53;101452.47;5075910;28;1158;-53
2023/02/17 11:27:09;;;;;;;;;;;;;;;16.40;39.66;101463.22;5075124;28;1142;-53
2023/02/17 11:29:34;;;;;;;;;;;;;;;16.16;39.91;101451.63;5067052;28;1905;-53
2023/02/17 11:32:01;;;;;;;;;;;;;;;17.21;37.72;101450.66;5075527;28;1047;-53
2023/02/17 11:34:27;;;;;;;;;;;;;;;16.37;39.58;101460.97;5075411;28;1131;-53
2023/02/17 11:37:19;;;;;;;;;;;;;;;16.14;39.97;101451.06;5076110;28;1086;-54
2023/02/17 11:39:45;;;;;;;;;;;;;;;17.16;38.30;101447.84;5074082;28;1642;-53
2023/02/17 11:42:20;;;;;;;;;;;;;;;16.68;38.85;101445.69;5074869;28;1103;-53
2023/02/17 11:44:46;;;;;;;;;;;;;;;16.30;39.96;101446.59;5075975;28;1094;-52
2023/02/17 11:47:11;;;;;;;;;;;;;;;17.17;38.26;101444.81;5075822;28;1490;-53
2023/02/17 11:49:42;;;;;;;;;;;;;;;16.75;38.78;101438.06;5075158;28;1906;-46
2023/02/17 11:52:08;;;;;;;;;;;;;;;16.13;40.02;101430.19;5075035;28;1059;-54
2023/02/17 11:54:36;;;;;;;;;;;;;;;17.27;38.05;101433.09;5075571;28;1143;-53
2023/02/17 11:57:30;;;;;;;;;;;;;;;16.40;39.45;101425.59;5075389;28;935;-55
2023/02/17 12:00:16;;;;;;;;;;;;;;;18.03;36.26;101429.22;5074823;28;1108;-51
2023/02/17 12:03:00;;;;;;;;;;;;;;;17.06;38.26;101421.91;5074790;28;1212;-53
2023/02/17 12:05:34;;;;;;;;;;;;;;;16.46;39.58;101421.00;5074559;28;933;-51
2023/02/17 12:08:00;;;;;;;;;;;;;;;17.61;37.37;101421.78;5075946;28;1238;-53
2023/02/17 12:10:28;;;;;;;;;;;;;;;16.57;39.04;101411.78;5075329;28;2259;-54
2023/02/17 12:13:12;;;;;;;;;;;;;;;16.78;38.98;101414.75;5074885;28;1150;-50
2023/02/17 12:15:47;;;;;;;;;;;;;;;17.00;38.31;101425.72;5074980;28;1165;-54
2023/02/17 12:18:19;;;;;;;;;;;;;;;16.73;38.96;101414.69;5075235;28;1030;-52
2023/02/17 12:20:54;;;;;;;;;;;;;;;18.19;35.99;101399.00;5074256;28;1245;-54
2023/02/17 12:23:32;;;;;;;;;;;;;;;16.80;38.99;101406.25;5072490;28;1140;-53
2023/02/17 12:25:58;;;;;;;;;;;;;;;16.49;39.34;101408.69;5073466;28;1021;-54
2023/02/17 12:28:47;;;;;;;;;;;;;;;16.33;40.04;101415.91;5073741;28;1966;-56
2023/02/17 12:31:19;;;;;;;;;;;;;;;16.81;38.63;101408.75;5071949;28;1316;-54
2023/02/17 12:34:08;;;;;;;;;;;;;;;16.32;39.96;101404.09;5075685;28;1035;-56
2023/02/17 12:36:34;;;;;;;;;;;;;;;17.09;38.48;101402.16;5075979;28;1410;-56
2023/02/17 12:39:01;;;;;;;;;;;;;;;16.52;39.57;101402.66;5078240;28;1070;-56
2023/02/17 12:41:29;;;;;;;;;;;;;;;17.63;37.35;101411.38;5076909;28;1016;-56
2023/02/17 12:43:59;;;;;;;;;;;;;;;17.88;36.79;101407.09;5078197;28;1184;-55
2023/02/17 12:46:26;;;;;;;;;;;;;;;16.75;39.02;101410.59;5077849;28;1114;-54
2023/02/17 12:49:00;;;;;;;;;;;;;;;16.57;39.43;101419.22;5078496;28;1968;-54
2023/02/17 12:51:25;;;;;;;;;;;;;;;16.97;38.31;101422.66;5078429;28;1146;-54
2023/02/17 12:54:00;;;;;;;;;;;;;;;16.45;39.74;101424.00;5078356;28;821;-54
2023/02/17 12:56:29;;;;;;;;;;;;;;;16.20;39.95;101417.97;5078342;28;1158;-55